sensor_id;sensor_type;location;lat;lon;timestamp;P1;durP1;ratioP1;P2;durP2;ratioP2
8297;SDS011;4187;42.778;23.242;2022-07-04T00:00:41;7.32;;;6.43;;
8297;SDS011;4187;42.778;23.242;2022-07-04T00:03:07;6.82;;;6.03;;
8297;SDS011;4187;42.778;23.242;2022-07-04T00:05:34;6.60;;;6.03;;
8297;SDS011;4187;42.778;23.242;2022-07-04T00:08:00;7.18;;;5.95;;
8297;SDS011;4187;42.778;23.242;2022-07-04T00:10:27;9.10;;;6.22;;
8297;SDS011;4187;42.778;23.242;2022-07-04T00:12:53;6.05;;;5.45;;
8297;SDS011;4187;42.778;23.242;2022-07-04T00:15:21;6.28;;;5.68;;
8297;SDS011;4187;42.778;23.242;2022-07-04T00:17:48;6.60;;;5.80;;
8297;SDS011;4187;42.778;23.242;2022-07-04T00:20:14;5.95;;;5.45;;
8297;SDS011;4187;42.778;23.242;2022-07-04T00:22:41;7.05;;;5.38;;
8297;SDS011;4187;42.778;23.242;2022-07-04T00:25:07;5.97;;;5.28;;
8297;SDS011;4187;42.778;23.242;2022-07-04T00:27:34;5.88;;;5.38;;
8297;SDS011;4187;42.778;23.242;2022-07-04T00:30:01;7.82;;;5.93;;
8297;SDS011;4187;42.778;23.242;2022-07-04T00:32:28;5.93;;;5.43;;
8297;SDS011;4187;42.778;23.242;2022-07-04T00:34:55;6.50;;;5.38;;
8297;SDS011;4187;42.778;23.242;2022-07-04T00:37:21;5.45;;;4.95;;
8297;SDS011;4187;42.778;23.242;2022-07-04T00:39:48;6.30;;;5.78;;
8297;SDS011;4187;42.778;23.242;2022-07-04T00:42:15;6.88;;;5.93;;
8297;SDS011;4187;42.778;23.242;2022-07-04T00:44:41;6.40;;;5.38;;
8297;SDS011;4187;42.778;23.242;2022-07-04T00:47:08;6.00;;;5.50;;
8297;SDS011;4187;42.778;23.242;2022-07-04T00:49:36;6.45;;;5.30;;
8297;SDS011;4187;42.778;23.242;2022-07-04T00:52:02;6.18;;;5.57;;
8297;SDS011;4187;42.778;23.242;2022-07-04T00:54:30;7.15;;;5.97;;
8297;SDS011;4187;42.778;23.242;2022-07-04T00:56:57;5.70;;;5.20;;
8297;SDS011;4187;42.778;23.242;2022-07-04T00:59:24;5.25;;;4.75;;
8297;SDS011;4187;42.778;23.242;2022-07-04T01:01:51;5.80;;;5.30;;
8297;SDS011;4187;42.778;23.242;2022-07-04T01:04:17;6.30;;;5.30;;
8297;SDS011;4187;42.778;23.242;2022-07-04T01:06:45;10.40;;;5.60;;
8297;SDS011;4187;42.778;23.242;2022-07-04T01:09:12;6.18;;;5.47;;
8297;SDS011;4187;42.778;23.242;2022-07-04T01:11:38;7.35;;;5.10;;
8297;SDS011;4187;42.778;23.242;2022-07-04T01:14:05;6.10;;;5.50;;
8297;SDS011;4187;42.778;23.242;2022-07-04T01:16:32;6.25;;;5.50;;
8297;SDS011;4187;42.778;23.242;2022-07-04T01:18:59;5.32;;;4.82;;
8297;SDS011;4187;42.778;23.242;2022-07-04T01:21:27;5.80;;;5.15;;
8297;SDS011;4187;42.778;23.242;2022-07-04T01:23:53;6.50;;;5.78;;
8297;SDS011;4187;42.778;23.242;2022-07-04T01:26:20;8.98;;;5.32;;
8297;SDS011;4187;42.778;23.242;2022-07-04T01:28:47;4.90;;;4.50;;
8297;SDS011;4187;42.778;23.242;2022-07-04T01:31:14;5.03;;;4.43;;
8297;SDS011;4187;42.778;23.242;2022-07-04T01:33:41;4.32;;;3.97;;
8297;SDS011;4187;42.778;23.242;2022-07-04T01:36:07;6.95;;;4.35;;
8297;SDS011;4187;42.778;23.242;2022-07-04T01:38:35;6.55;;;4.60;;
8297;SDS011;4187;42.778;23.242;2022-07-04T01:41:01;5.45;;;4.95;;
8297;SDS011;4187;42.778;23.242;2022-07-04T01:43:28;6.22;;;4.80;;
8297;SDS011;4187;42.778;23.242;2022-07-04T01:45:54;6.85;;;4.32;;
8297;SDS011;4187;42.778;23.242;2022-07-04T01:48:21;5.63;;;4.55;;
8297;SDS011;4187;42.778;23.242;2022-07-04T01:50:47;4.72;;;4.18;;
8297;SDS011;4187;42.778;23.242;2022-07-04T01:53:14;4.90;;;4.47;;
8297;SDS011;4187;42.778;23.242;2022-07-04T01:55:42;6.75;;;4.43;;
8297;SDS011;4187;42.778;23.242;2022-07-04T01:58:08;5.47;;;4.13;;
8297;SDS011;4187;42.778;23.242;2022-07-04T02:00:35;8.02;;;4.93;;
8297;SDS011;4187;42.778;23.242;2022-07-04T02:03:18;7.85;;;5.22;;
8297;SDS011;4187;42.778;23.242;2022-07-04T02:05:45;6.32;;;4.65;;
8297;SDS011;4187;42.778;23.242;2022-07-04T02:08:11;6.47;;;4.60;;
8297;SDS011;4187;42.778;23.242;2022-07-04T02:10:38;5.72;;;4.82;;
8297;SDS011;4187;42.778;23.242;2022-07-04T02:13:06;5.35;;;4.82;;
8297;SDS011;4187;42.778;23.242;2022-07-04T02:15:32;6.28;;;4.68;;
8297;SDS011;4187;42.778;23.242;2022-07-04T02:17:59;6.90;;;5.30;;
8297;SDS011;4187;42.778;23.242;2022-07-04T02:20:26;5.05;;;4.57;;
8297;SDS011;4187;42.778;23.242;2022-07-04T02:22:53;5.10;;;4.60;;
8297;SDS011;4187;42.778;23.242;2022-07-04T02:25:19;6.65;;;5.10;;
8297;SDS011;4187;42.778;23.242;2022-07-04T02:27:46;5.43;;;4.80;;
8297;SDS011;4187;42.778;23.242;2022-07-04T02:30:14;5.18;;;4.75;;
8297;SDS011;4187;42.778;23.242;2022-07-04T02:32:40;7.25;;;4.95;;
8297;SDS011;4187;42.778;23.242;2022-07-04T02:35:07;5.55;;;5.05;;
8297;SDS011;4187;42.778;23.242;2022-07-04T02:37:34;5.28;;;4.78;;
8297;SDS011;4187;42.778;23.242;2022-07-04T02:40:00;5.60;;;5.10;;
8297;SDS011;4187;42.778;23.242;2022-07-04T02:42:28;6.50;;;4.85;;
8297;SDS011;4187;42.778;23.242;2022-07-04T02:44:55;4.88;;;4.38;;
8297;SDS011;4187;42.778;23.242;2022-07-04T02:47:22;7.65;;;4.57;;
8297;SDS011;4187;42.778;23.242;2022-07-04T02:49:49;7.55;;;6.07;;
8297;SDS011;4187;42.778;23.242;2022-07-04T02:52:16;6.00;;;5.40;;
8297;SDS011;4187;42.778;23.242;2022-07-04T02:54:42;6.07;;;5.38;;
8297;SDS011;4187;42.778;23.242;2022-07-04T02:57:10;6.50;;;6.00;;
8297;SDS011;4187;42.778;23.242;2022-07-04T02:59:36;7.88;;;5.80;;
8297;SDS011;4187;42.778;23.242;2022-07-04T03:02:03;7.15;;;6.20;;
8297;SDS011;4187;42.778;23.242;2022-07-04T03:04:31;6.55;;;6.05;;
8297;SDS011;4187;42.778;23.242;2022-07-04T03:06:58;7.63;;;6.88;;
8297;SDS011;4187;42.778;23.242;2022-07-04T03:09:24;8.65;;;6.25;;
8297;SDS011;4187;42.778;23.242;2022-07-04T03:11:52;8.85;;;6.75;;
8297;SDS011;4187;42.778;23.242;2022-07-04T03:14:19;8.10;;;6.55;;
8297;SDS011;4187;42.778;23.242;2022-07-04T03:16:46;9.60;;;6.57;;
8297;SDS011;4187;42.778;23.242;2022-07-04T03:19:12;6.80;;;6.05;;
8297;SDS011;4187;42.778;23.242;2022-07-04T03:21:40;6.80;;;6.20;;
8297;SDS011;4187;42.778;23.242;2022-07-04T03:24:07;7.22;;;6.53;;
8297;SDS011;4187;42.778;23.242;2022-07-04T03:26:34;8.60;;;6.85;;
8297;SDS011;4187;42.778;23.242;2022-07-04T03:29:01;7.75;;;6.38;;
8297;SDS011;4187;42.778;23.242;2022-07-04T03:31:27;7.47;;;6.47;;
8297;SDS011;4187;42.778;23.242;2022-07-04T03:33:54;6.88;;;6.28;;
8297;SDS011;4187;42.778;23.242;2022-07-04T03:36:21;7.88;;;7.10;;
8297;SDS011;4187;42.778;23.242;2022-07-04T03:38:48;7.53;;;6.70;;
8297;SDS011;4187;42.778;23.242;2022-07-04T03:41:15;6.82;;;6.25;;
8297;SDS011;4187;42.778;23.242;2022-07-04T03:43:41;7.35;;;6.68;;
8297;SDS011;4187;42.778;23.242;2022-07-04T03:46:08;7.45;;;6.78;;
8297;SDS011;4187;42.778;23.242;2022-07-04T03:48:34;9.85;;;6.93;;
8297;SDS011;4187;42.778;23.242;2022-07-04T03:51:01;7.70;;;7.00;;
8297;SDS011;4187;42.778;23.242;2022-07-04T03:53:28;7.30;;;6.60;;
8297;SDS011;4187;42.778;23.242;2022-07-04T03:55:55;8.88;;;6.75;;
8297;SDS011;4187;42.778;23.242;2022-07-04T03:58:22;9.15;;;7.10;;
8297;SDS011;4187;42.778;23.242;2022-07-04T04:00:48;8.43;;;7.20;;
8297;SDS011;4187;42.778;23.242;2022-07-04T04:03:15;11.50;;;7.32;;
8297;SDS011;4187;42.778;23.242;2022-07-04T04:05:59;8.30;;;7.53;;
8297;SDS011;4187;42.778;23.242;2022-07-04T04:08:25;8.35;;;7.50;;
8297;SDS011;4187;42.778;23.242;2022-07-04T04:10:52;10.57;;;7.18;;
8297;SDS011;4187;42.778;23.242;2022-07-04T04:13:20;8.52;;;7.25;;
8297;SDS011;4187;42.778;23.242;2022-07-04T04:15:46;10.43;;;7.50;;
8297;SDS011;4187;42.778;23.242;2022-07-04T04:18:13;10.77;;;7.20;;
8297;SDS011;4187;42.778;23.242;2022-07-04T04:20:39;9.13;;;8.23;;
8297;SDS011;4187;42.778;23.242;2022-07-04T04:23:06;10.15;;;7.68;;
8297;SDS011;4187;42.778;23.242;2022-07-04T04:25:33;11.07;;;7.38;;
8297;SDS011;4187;42.778;23.242;2022-07-04T04:27:59;11.70;;;7.63;;
8297;SDS011;4187;42.778;23.242;2022-07-04T04:30:27;10.43;;;7.68;;
8297;SDS011;4187;42.778;23.242;2022-07-04T04:32:54;9.52;;;8.63;;
8297;SDS011;4187;42.778;23.242;2022-07-04T04:35:20;9.93;;;8.52;;
8297;SDS011;4187;42.778;23.242;2022-07-04T04:37:47;9.57;;;7.70;;
8297;SDS011;4187;42.778;23.242;2022-07-04T04:40:13;9.70;;;7.80;;
8297;SDS011;4187;42.778;23.242;2022-07-04T04:42:40;9.70;;;7.72;;
8297;SDS011;4187;42.778;23.242;2022-07-04T04:45:06;10.05;;;7.55;;
8297;SDS011;4187;42.778;23.242;2022-07-04T04:47:34;8.70;;;7.85;;
8297;SDS011;4187;42.778;23.242;2022-07-04T04:50:01;10.70;;;8.07;;
8297;SDS011;4187;42.778;23.242;2022-07-04T04:52:28;9.18;;;8.15;;
8297;SDS011;4187;42.778;23.242;2022-07-04T04:54:56;8.32;;;7.50;;
8297;SDS011;4187;42.778;23.242;2022-07-04T04:57:22;9.57;;;6.65;;
8297;SDS011;4187;42.778;23.242;2022-07-04T04:59:49;6.13;;;5.53;;
8297;SDS011;4187;42.778;23.242;2022-07-04T05:02:15;5.40;;;4.85;;
8297;SDS011;4187;42.778;23.242;2022-07-04T05:04:43;6.00;;;5.28;;
8297;SDS011;4187;42.778;23.242;2022-07-04T05:07:09;7.20;;;5.70;;
8297;SDS011;4187;42.778;23.242;2022-07-04T05:09:36;6.72;;;5.68;;
8297;SDS011;4187;42.778;23.242;2022-07-04T05:12:04;6.40;;;5.80;;
8297;SDS011;4187;42.778;23.242;2022-07-04T05:14:31;5.45;;;4.95;;
8297;SDS011;4187;42.778;23.242;2022-07-04T05:16:58;9.02;;;5.75;;
8297;SDS011;4187;42.778;23.242;2022-07-04T05:19:24;8.85;;;5.70;;
8297;SDS011;4187;42.778;23.242;2022-07-04T05:21:52;7.47;;;5.63;;
8297;SDS011;4187;42.778;23.242;2022-07-04T05:24:19;6.55;;;4.93;;
8297;SDS011;4187;42.778;23.242;2022-07-04T05:26:45;7.15;;;5.53;;
8297;SDS011;4187;42.778;23.242;2022-07-04T05:29:12;6.32;;;5.35;;
8297;SDS011;4187;42.778;23.242;2022-07-04T05:31:38;9.27;;;5.45;;
8297;SDS011;4187;42.778;23.242;2022-07-04T05:34:05;5.63;;;5.03;;
8297;SDS011;4187;42.778;23.242;2022-07-04T05:36:31;5.72;;;5.22;;
8297;SDS011;4187;42.778;23.242;2022-07-04T05:38:59;5.85;;;5.35;;
8297;SDS011;4187;42.778;23.242;2022-07-04T05:41:26;5.45;;;4.65;;
8297;SDS011;4187;42.778;23.242;2022-07-04T05:43:52;5.82;;;4.68;;
8297;SDS011;4187;42.778;23.242;2022-07-04T05:46:19;4.45;;;4.00;;
8297;SDS011;4187;42.778;23.242;2022-07-04T05:48:45;9.40;;;3.88;;
8297;SDS011;4187;42.778;23.242;2022-07-04T05:51:13;7.47;;;3.72;;
8297;SDS011;4187;42.778;23.242;2022-07-04T05:53:39;13.40;;;3.90;;
8297;SDS011;4187;42.778;23.242;2022-07-04T05:56:07;5.88;;;4.25;;
8297;SDS011;4187;42.778;23.242;2022-07-04T05:58:34;4.45;;;4.05;;
8297;SDS011;4187;42.778;23.242;2022-07-04T06:01:00;3.95;;;3.63;;
8297;SDS011;4187;42.778;23.242;2022-07-04T06:03:27;4.28;;;3.88;;
8297;SDS011;4187;42.778;23.242;2022-07-04T06:05:53;4.88;;;4.20;;
8297;SDS011;4187;42.778;23.242;2022-07-04T06:08:20;4.38;;;3.53;;
8297;SDS011;4187;42.778;23.242;2022-07-04T06:10:47;4.43;;;4.03;;
8297;SDS011;4187;42.778;23.242;2022-07-04T06:13:15;4.80;;;4.00;;
8297;SDS011;4187;42.778;23.242;2022-07-04T06:15:42;4.60;;;3.72;;
8297;SDS011;4187;42.778;23.242;2022-07-04T06:18:08;4.00;;;3.65;;
8297;SDS011;4187;42.778;23.242;2022-07-04T06:20:35;4.20;;;3.75;;
8297;SDS011;4187;42.778;23.242;2022-07-04T06:23:01;4.10;;;3.63;;
8297;SDS011;4187;42.778;23.242;2022-07-04T06:25:28;5.03;;;3.70;;
8297;SDS011;4187;42.778;23.242;2022-07-04T06:27:55;5.97;;;3.53;;
8297;SDS011;4187;42.778;23.242;2022-07-04T06:30:23;5.28;;;3.35;;
8297;SDS011;4187;42.778;23.242;2022-07-04T06:32:50;4.95;;;3.50;;
8297;SDS011;4187;42.778;23.242;2022-07-04T06:35:17;6.43;;;3.42;;
8297;SDS011;4187;42.778;23.242;2022-07-04T06:38:01;4.32;;;3.92;;
8297;SDS011;4187;42.778;23.242;2022-07-04T06:40:28;6.35;;;3.60;;
8297;SDS011;4187;42.778;23.242;2022-07-04T06:42:54;5.20;;;4.07;;
8297;SDS011;4187;42.778;23.242;2022-07-04T06:45:21;4.00;;;3.65;;
8297;SDS011;4187;42.778;23.242;2022-07-04T06:47:48;6.35;;;3.92;;
8297;SDS011;4187;42.778;23.242;2022-07-04T06:50:15;8.27;;;4.10;;
8297;SDS011;4187;42.778;23.242;2022-07-04T06:52:42;5.53;;;4.07;;
8297;SDS011;4187;42.778;23.242;2022-07-04T06:55:09;3.55;;;3.25;;
8297;SDS011;4187;42.778;23.242;2022-07-04T06:57:36;7.00;;;3.53;;
8297;SDS011;4187;42.778;23.242;2022-07-04T07:00:03;5.00;;;3.17;;
8297;SDS011;4187;42.778;23.242;2022-07-04T07:02:29;4.25;;;3.10;;
8297;SDS011;4187;42.778;23.242;2022-07-04T07:04:57;6.35;;;3.40;;
8297;SDS011;4187;42.778;23.242;2022-07-04T07:07:24;6.13;;;3.15;;
8297;SDS011;4187;42.778;23.242;2022-07-04T07:09:52;3.90;;;3.47;;
8297;SDS011;4187;42.778;23.242;2022-07-04T07:12:18;3.83;;;3.00;;
8297;SDS011;4187;42.778;23.242;2022-07-04T07:14:45;3.65;;;3.10;;
8297;SDS011;4187;42.778;23.242;2022-07-04T07:17:11;5.07;;;3.30;;
8297;SDS011;4187;42.778;23.242;2022-07-04T07:19:38;4.65;;;4.03;;
8297;SDS011;4187;42.778;23.242;2022-07-04T07:22:06;6.82;;;4.53;;
8297;SDS011;4187;42.778;23.242;2022-07-04T07:24:32;4.35;;;3.63;;
8297;SDS011;4187;42.778;23.242;2022-07-04T07:26:59;6.60;;;3.17;;
8297;SDS011;4187;42.778;23.242;2022-07-04T07:29:26;6.00;;;3.60;;
8297;SDS011;4187;42.778;23.242;2022-07-04T07:31:52;7.20;;;4.85;;
8297;SDS011;4187;42.778;23.242;2022-07-04T07:34:19;13.93;;;8.10;;
8297;SDS011;4187;42.778;23.242;2022-07-04T07:36:45;3.95;;;3.15;;
8297;SDS011;4187;42.778;23.242;2022-07-04T07:39:13;5.93;;;3.70;;
8297;SDS011;4187;42.778;23.242;2022-07-04T07:41:40;3.88;;;3.47;;
8297;SDS011;4187;42.778;23.242;2022-07-04T07:44:07;8.57;;;5.35;;
8297;SDS011;4187;42.778;23.242;2022-07-04T07:46:33;10.75;;;4.55;;
8297;SDS011;4187;42.778;23.242;2022-07-04T07:49:00;5.13;;;4.60;;
8297;SDS011;4187;42.778;23.242;2022-07-04T07:51:26;4.78;;;3.75;;
8297;SDS011;4187;42.778;23.242;2022-07-04T07:53:53;4.30;;;3.30;;
8297;SDS011;4187;42.778;23.242;2022-07-04T07:56:21;4.50;;;3.70;;
8297;SDS011;4187;42.778;23.242;2022-07-04T07:58:48;5.35;;;4.63;;
8297;SDS011;4187;42.778;23.242;2022-07-04T08:01:14;5.38;;;3.30;;
8297;SDS011;4187;42.778;23.242;2022-07-04T08:03:41;5.07;;;4.60;;
8297;SDS011;4187;42.778;23.242;2022-07-04T08:06:25;4.25;;;3.28;;
8297;SDS011;4187;42.778;23.242;2022-07-04T08:08:51;6.75;;;3.28;;
8297;SDS011;4187;42.778;23.242;2022-07-04T08:11:18;7.72;;;4.38;;
8297;SDS011;4187;42.778;23.242;2022-07-04T08:13:47;3.45;;;3.15;;
8297;SDS011;4187;42.778;23.242;2022-07-04T08:16:13;3.92;;;3.45;;
8297;SDS011;4187;42.778;23.242;2022-07-04T08:18:40;6.85;;;3.92;;
8297;SDS011;4187;42.778;23.242;2022-07-04T08:21:06;4.40;;;3.30;;
8297;SDS011;4187;42.778;23.242;2022-07-04T08:23:33;4.40;;;4.00;;
8297;SDS011;4187;42.778;23.242;2022-07-04T08:26:00;5.63;;;4.25;;
8297;SDS011;4187;42.778;23.242;2022-07-04T08:28:26;4.28;;;3.72;;
8297;SDS011;4187;42.778;23.242;2022-07-04T08:30:54;5.78;;;4.15;;
8297;SDS011;4187;42.778;23.242;2022-07-04T08:33:21;3.83;;;3.42;;
8297;SDS011;4187;42.778;23.242;2022-07-04T08:35:48;10.43;;;4.15;;
8297;SDS011;4187;42.778;23.242;2022-07-04T08:38:15;9.95;;;4.30;;
8297;SDS011;4187;42.778;23.242;2022-07-04T08:40:42;4.63;;;3.53;;
8297;SDS011;4187;42.778;23.242;2022-07-04T08:43:09;7.65;;;4.07;;
8297;SDS011;4187;42.778;23.242;2022-07-04T08:45:39;5.05;;;3.60;;
8297;SDS011;4187;42.778;23.242;2022-07-04T08:48:08;6.43;;;3.95;;
8297;SDS011;4187;42.778;23.242;2022-07-04T08:50:37;5.20;;;3.80;;
8297;SDS011;4187;42.778;23.242;2022-07-04T08:53:06;4.22;;;3.67;;
8297;SDS011;4187;42.778;23.242;2022-07-04T08:55:33;4.05;;;3.63;;
8297;SDS011;4187;42.778;23.242;2022-07-04T08:58:18;6.65;;;4.45;;
8297;SDS011;4187;42.778;23.242;2022-07-04T09:00:55;4.97;;;3.92;;
8297;SDS011;4187;42.778;23.242;2022-07-04T09:03:24;4.97;;;3.80;;
8297;SDS011;4187;42.778;23.242;2022-07-04T09:05:50;7.20;;;4.40;;
8297;SDS011;4187;42.778;23.242;2022-07-04T09:08:17;6.20;;;4.80;;
8297;SDS011;4187;42.778;23.242;2022-07-04T09:10:43;5.00;;;3.65;;
8297;SDS011;4187;42.778;23.242;2022-07-04T09:13:12;5.07;;;4.20;;
8297;SDS011;4187;42.778;23.242;2022-07-04T09:15:40;4.95;;;4.55;;
8297;SDS011;4187;42.778;23.242;2022-07-04T09:18:18;5.20;;;4.38;;
8297;SDS011;4187;42.778;23.242;2022-07-04T09:20:46;5.80;;;4.85;;
8297;SDS011;4187;42.778;23.242;2022-07-04T09:23:16;8.75;;;4.78;;
8297;SDS011;4187;42.778;23.242;2022-07-04T09:25:43;4.30;;;3.70;;
8297;SDS011;4187;42.778;23.242;2022-07-04T09:28:10;4.57;;;4.18;;
8297;SDS011;4187;42.778;23.242;2022-07-04T09:30:45;9.00;;;4.50;;
8297;SDS011;4187;42.778;23.242;2022-07-04T09:33:12;7.93;;;4.38;;
8297;SDS011;4187;42.778;23.242;2022-07-04T09:35:42;4.82;;;4.32;;
8297;SDS011;4187;42.778;23.242;2022-07-04T09:38:10;6.50;;;4.78;;
8297;SDS011;4187;42.778;23.242;2022-07-04T09:40:38;7.88;;;4.72;;
8297;SDS011;4187;42.778;23.242;2022-07-04T09:43:18;5.68;;;4.40;;
8297;SDS011;4187;42.778;23.242;2022-07-04T09:45:52;5.10;;;4.63;;
8297;SDS011;4187;42.778;23.242;2022-07-04T09:48:19;5.45;;;4.85;;
8297;SDS011;4187;42.778;23.242;2022-07-04T09:50:46;5.60;;;5.07;;
8297;SDS011;4187;42.778;23.242;2022-07-04T09:53:14;7.47;;;5.30;;
8297;SDS011;4187;42.778;23.242;2022-07-04T09:55:40;8.38;;;5.15;;
8297;SDS011;4187;42.778;23.242;2022-07-04T09:58:07;5.95;;;5.30;;
8297;SDS011;4187;42.778;23.242;2022-07-04T10:00:34;10.20;;;5.72;;
8297;SDS011;4187;42.778;23.242;2022-07-04T10:03:15;8.00;;;5.25;;
8297;SDS011;4187;42.778;23.242;2022-07-04T10:05:42;6.32;;;5.22;;
8297;SDS011;4187;42.778;23.242;2022-07-04T10:08:08;4.97;;;4.57;;
8297;SDS011;4187;42.778;23.242;2022-07-04T10:10:37;5.32;;;4.78;;
8297;SDS011;4187;42.778;23.242;2022-07-04T10:13:05;5.65;;;5.10;;
8297;SDS011;4187;42.778;23.242;2022-07-04T10:15:32;5.65;;;5.05;;
8297;SDS011;4187;42.778;23.242;2022-07-04T10:17:59;7.10;;;5.45;;
8297;SDS011;4187;42.778;23.242;2022-07-04T10:20:25;5.93;;;5.32;;
8297;SDS011;4187;42.778;23.242;2022-07-04T10:22:52;7.18;;;4.82;;
8297;SDS011;4187;42.778;23.242;2022-07-04T10:25:19;6.32;;;5.38;;
8297;SDS011;4187;42.778;23.242;2022-07-04T10:27:47;6.25;;;5.15;;
8297;SDS011;4187;42.778;23.242;2022-07-04T10:30:17;5.57;;;5.13;;
8297;SDS011;4187;42.778;23.242;2022-07-04T10:32:45;8.30;;;6.03;;
8297;SDS011;4187;42.778;23.242;2022-07-04T10:35:13;5.93;;;5.30;;
8297;SDS011;4187;42.778;23.242;2022-07-04T10:38:00;7.38;;;5.15;;
8297;SDS011;4187;42.778;23.242;2022-07-04T10:40:43;7.68;;;6.95;;
8297;SDS011;4187;42.778;23.242;2022-07-04T10:45:58;7.32;;;5.32;;
8297;SDS011;4187;42.778;23.242;2022-07-04T10:48:47;10.10;;;5.75;;
8297;SDS011;4187;42.778;23.242;2022-07-04T10:51:14;7.07;;;5.57;;
8297;SDS011;4187;42.778;23.242;2022-07-04T10:56:35;6.07;;;5.47;;
8297;SDS011;4187;42.778;23.242;2022-07-04T10:59:03;6.10;;;5.53;;
8297;SDS011;4187;42.778;23.242;2022-07-04T11:01:34;7.50;;;5.70;;
8297;SDS011;4187;42.778;23.242;2022-07-04T11:04:01;6.13;;;5.47;;
8297;SDS011;4187;42.778;23.242;2022-07-04T11:09:17;8.25;;;5.40;;
8297;SDS011;4187;42.778;23.242;2022-07-04T11:11:47;7.80;;;5.30;;
8297;SDS011;4187;42.778;23.242;2022-07-04T11:14:37;5.80;;;5.30;;
8297;SDS011;4187;42.778;23.242;2022-07-04T11:17:05;7.60;;;5.40;;
8297;SDS011;4187;42.778;23.242;2022-07-04T11:19:32;5.80;;;4.80;;
8297;SDS011;4187;42.778;23.242;2022-07-04T11:21:59;6.20;;;5.60;;
8297;SDS011;4187;42.778;23.242;2022-07-04T11:24:26;8.02;;;5.22;;
8297;SDS011;4187;42.778;23.242;2022-07-04T11:26:53;6.20;;;5.70;;
8297;SDS011;4187;42.778;23.242;2022-07-04T11:29:19;6.95;;;5.45;;
8297;SDS011;4187;42.778;23.242;2022-07-04T11:31:47;5.95;;;5.32;;
8297;SDS011;4187;42.778;23.242;2022-07-04T11:34:15;7.80;;;5.47;;
8297;SDS011;4187;42.778;23.242;2022-07-04T11:36:42;6.03;;;5.45;;
8297;SDS011;4187;42.778;23.242;2022-07-04T11:39:09;6.40;;;5.80;;
8297;SDS011;4187;42.778;23.242;2022-07-04T11:41:37;6.03;;;5.53;;
8297;SDS011;4187;42.778;23.242;2022-07-04T11:44:23;7.47;;;6.00;;
8297;SDS011;4187;42.778;23.242;2022-07-04T11:47:09;9.30;;;5.63;;
8297;SDS011;4187;42.778;23.242;2022-07-04T11:49:41;5.53;;;5.13;;
8297;SDS011;4187;42.778;23.242;2022-07-04T11:52:07;9.25;;;5.80;;
8297;SDS011;4187;42.778;23.242;2022-07-04T11:54:34;6.10;;;5.60;;
8297;SDS011;4187;42.778;23.242;2022-07-04T11:57:11;11.15;;;6.88;;
8297;SDS011;4187;42.778;23.242;2022-07-04T11:59:38;7.20;;;6.60;;
8297;SDS011;4187;42.778;23.242;2022-07-04T12:02:11;6.78;;;6.10;;
8297;SDS011;4187;42.778;23.242;2022-07-04T12:04:39;8.00;;;6.10;;
8297;SDS011;4187;42.778;23.242;2022-07-04T12:07:10;7.95;;;5.28;;
8297;SDS011;4187;42.778;23.242;2022-07-04T12:09:37;6.22;;;5.63;;
8297;SDS011;4187;42.778;23.242;2022-07-04T12:12:04;6.00;;;5.40;;
8297;SDS011;4187;42.778;23.242;2022-07-04T12:14:31;8.70;;;5.55;;
8297;SDS011;4187;42.778;23.242;2022-07-04T12:17:10;6.25;;;5.57;;
8297;SDS011;4187;42.778;23.242;2022-07-04T12:19:37;6.40;;;5.57;;
8297;SDS011;4187;42.778;23.242;2022-07-04T12:22:05;6.57;;;5.97;;
8297;SDS011;4187;42.778;23.242;2022-07-04T12:24:41;6.05;;;5.55;;
8297;SDS011;4187;42.778;23.242;2022-07-04T12:27:15;7.15;;;5.53;;
8297;SDS011;4187;42.778;23.242;2022-07-04T12:29:45;7.97;;;5.72;;
8297;SDS011;4187;42.778;23.242;2022-07-04T12:32:12;6.38;;;5.85;;
8297;SDS011;4187;42.778;23.242;2022-07-04T12:34:39;6.07;;;5.57;;
8297;SDS011;4187;42.778;23.242;2022-07-04T12:37:07;6.18;;;5.57;;
8297;SDS011;4187;42.778;23.242;2022-07-04T12:39:35;6.68;;;6.00;;
8297;SDS011;4187;42.778;23.242;2022-07-04T12:42:06;9.18;;;5.70;;
8297;SDS011;4187;42.778;23.242;2022-07-04T12:44:33;6.32;;;5.75;;
8297;SDS011;4187;42.778;23.242;2022-07-04T12:47:00;7.63;;;5.32;;
8297;SDS011;4187;42.778;23.242;2022-07-04T12:49:26;8.02;;;5.90;;
8297;SDS011;4187;42.778;23.242;2022-07-04T12:52:02;6.65;;;5.55;;
8297;SDS011;4187;42.778;23.242;2022-07-04T12:54:30;6.97;;;5.82;;
8297;SDS011;4187;42.778;23.242;2022-07-04T12:57:02;7.50;;;6.25;;
8297;SDS011;4187;42.778;23.242;2022-07-04T12:59:30;5.85;;;5.30;;
8297;SDS011;4187;42.778;23.242;2022-07-04T13:01:56;5.85;;;5.35;;
8297;SDS011;4187;42.778;23.242;2022-07-04T13:04:23;6.30;;;5.85;;
8297;SDS011;4187;42.778;23.242;2022-07-04T13:06:50;6.85;;;6.13;;
8297;SDS011;4187;42.778;23.242;2022-07-04T13:09:16;9.95;;;5.90;;
8297;SDS011;4187;42.778;23.242;2022-07-04T13:11:44;6.93;;;6.05;;
8297;SDS011;4187;42.778;23.242;2022-07-04T13:14:28;6.72;;;6.05;;
8297;SDS011;4187;42.778;23.242;2022-07-04T13:16:55;7.20;;;5.97;;
8297;SDS011;4187;42.778;23.242;2022-07-04T13:19:21;6.18;;;5.68;;
8297;SDS011;4187;42.778;23.242;2022-07-04T13:21:48;6.35;;;5.85;;
8297;SDS011;4187;42.778;23.242;2022-07-04T13:24:14;6.60;;;6.10;;
8297;SDS011;4187;42.778;23.242;2022-07-04T13:26:41;6.78;;;5.97;;
8297;SDS011;4187;42.778;23.242;2022-07-04T13:29:09;7.07;;;6.40;;
8297;SDS011;4187;42.778;23.242;2022-07-04T13:31:35;7.75;;;6.80;;
8297;SDS011;4187;42.778;23.242;2022-07-04T13:34:02;7.15;;;6.45;;
8297;SDS011;4187;42.778;23.242;2022-07-04T13:36:29;9.05;;;6.40;;
8297;SDS011;4187;42.778;23.242;2022-07-04T13:38:55;8.75;;;6.70;;
8297;SDS011;4187;42.778;23.242;2022-07-04T13:41:22;7.57;;;5.97;;
8297;SDS011;4187;42.778;23.242;2022-07-04T13:43:48;7.60;;;6.35;;
8297;SDS011;4187;42.778;23.242;2022-07-04T13:46:16;6.47;;;5.97;;
8297;SDS011;4187;42.778;23.242;2022-07-04T13:48:43;7.13;;;6.43;;
8297;SDS011;4187;42.778;23.242;2022-07-04T13:51:09;7.00;;;6.30;;
8297;SDS011;4187;42.778;23.242;2022-07-04T13:53:36;7.15;;;6.40;;
8297;SDS011;4187;42.778;23.242;2022-07-04T13:56:02;6.65;;;6.07;;
8297;SDS011;4187;42.778;23.242;2022-07-04T13:58:29;7.22;;;6.55;;
8297;SDS011;4187;42.778;23.242;2022-07-04T14:00:56;6.65;;;5.97;;
8297;SDS011;4187;42.778;23.242;2022-07-04T14:03:24;8.95;;;7.38;;
8297;SDS011;4187;42.778;23.242;2022-07-04T14:05:51;7.88;;;7.05;;
8297;SDS011;4187;42.778;23.242;2022-07-04T14:08:17;10.18;;;7.20;;
8297;SDS011;4187;42.778;23.242;2022-07-04T14:10:44;7.03;;;6.43;;
8297;SDS011;4187;42.778;23.242;2022-07-04T14:13:10;7.43;;;6.75;;
8297;SDS011;4187;42.778;23.242;2022-07-04T14:15:37;7.68;;;6.78;;
8297;SDS011;4187;42.778;23.242;2022-07-04T14:18:04;8.18;;;7.43;;
8297;SDS011;4187;42.778;23.242;2022-07-04T14:20:34;8.65;;;7.25;;
8297;SDS011;4187;42.778;23.242;2022-07-04T14:23:00;8.13;;;7.43;;
8297;SDS011;4187;42.778;23.242;2022-07-04T14:25:27;8.23;;;7.50;;
8297;SDS011;4187;42.778;23.242;2022-07-04T14:27:53;8.02;;;6.97;;
8297;SDS011;4187;42.778;23.242;2022-07-04T14:30:20;9.70;;;6.78;;
8297;SDS011;4187;42.778;23.242;2022-07-04T14:32:47;7.35;;;6.70;;
8297;SDS011;4187;42.778;23.242;2022-07-04T14:35:13;7.95;;;7.15;;
8297;SDS011;4187;42.778;23.242;2022-07-04T14:37:41;7.70;;;6.88;;
8297;SDS011;4187;42.778;23.242;2022-07-04T14:40:08;7.25;;;6.50;;
8297;SDS011;4187;42.778;23.242;2022-07-04T14:42:35;7.03;;;6.32;;
8297;SDS011;4187;42.778;23.242;2022-07-04T14:45:02;6.90;;;6.40;;
8297;SDS011;4187;42.778;23.242;2022-07-04T14:47:29;7.38;;;6.65;;
8297;SDS011;4187;42.778;23.242;2022-07-04T14:49:57;7.95;;;7.13;;
8297;SDS011;4187;42.778;23.242;2022-07-04T14:52:23;9.52;;;7.57;;
8297;SDS011;4187;42.778;23.242;2022-07-04T14:54:51;7.10;;;6.43;;
8297;SDS011;4187;42.778;23.242;2022-07-04T14:57:17;7.10;;;6.50;;
8297;SDS011;4187;42.778;23.242;2022-07-04T14:59:44;8.15;;;7.35;;
8297;SDS011;4187;42.778;23.242;2022-07-04T15:02:11;7.43;;;6.72;;
8297;SDS011;4187;42.778;23.242;2022-07-04T15:04:37;7.40;;;6.72;;
8297;SDS011;4187;42.778;23.242;2022-07-04T15:07:03;7.57;;;6.88;;
8297;SDS011;4187;42.778;23.242;2022-07-04T15:09:30;7.68;;;6.97;;
8297;SDS011;4187;42.778;23.242;2022-07-04T15:11:58;7.85;;;7.07;;